createdAt,value
2017-06-30T00:02:15.431Z,16.20
2017-06-30T00:04:43.933Z,16.30
2017-06-30T00:07:12.033Z,16.40
2017-06-30T00:09:40.950Z,16.30
2017-06-30T00:12:10.174Z,16.40
2017-06-30T00:14:38.254Z,16.30
2017-06-30T00:17:06.415Z,16.40
2017-06-30T00:19:34.481Z,16.40
2017-06-30T00:22:02.618Z,16.40
2017-06-30T00:24:30.735Z,16.40
2017-06-30T00:26:58.836Z,16.30
2017-06-30T00:29:26.890Z,16.40
2017-06-30T00:31:55.383Z,16.50
2017-06-30T00:34:23.839Z,16.40
2017-06-30T00:36:51.906Z,16.40
2017-06-30T00:39:19.996Z,16.40
2017-06-30T00:41:48.447Z,16.40
2017-06-30T00:44:16.522Z,16.40
2017-06-30T00:46:45.025Z,16.60
2017-06-30T00:49:13.102Z,16.50
2017-06-30T00:51:41.188Z,16.60
2017-06-30T00:54:09.331Z,16.60
2017-06-30T00:56:37.400Z,16.60
2017-06-30T00:59:05.463Z,16.60
2017-06-30T01:01:33.563Z,16.60
2017-06-30T01:04:01.611Z,16.60
2017-06-30T01:06:29.666Z,16.40
2017-06-30T01:08:57.742Z,16.30
2017-06-30T01:11:25.802Z,16.40
2017-06-30T01:13:53.890Z,16.40
2017-06-30T01:16:21.963Z,16.50
2017-06-30T01:18:50.030Z,16.50
2017-06-30T01:21:18.505Z,16.50
2017-06-30T01:23:46.567Z,16.50
2017-06-30T01:26:14.654Z,16.50
2017-06-30T01:28:42.726Z,16.40
2017-06-30T01:31:10.802Z,16.20
2017-06-30T01:33:38.872Z,16.30
2017-06-30T01:36:06.935Z,16.20
2017-06-30T01:38:35.019Z,16.20
2017-06-30T01:41:03.849Z,16.20
2017-06-30T01:43:31.929Z,16.20
2017-06-30T01:45:59.978Z,16.20
2017-06-30T01:48:28.039Z,16.10
2017-06-30T01:50:56.127Z,16.10
2017-06-30T01:53:24.187Z,16.10
2017-06-30T01:55:53.028Z,16.00
2017-06-30T01:58:21.854Z,16.00
2017-06-30T02:00:49.945Z,15.90
2017-06-30T02:03:18.032Z,16.10
2017-06-30T02:05:46.097Z,16.10
2017-06-30T02:08:14.272Z,16.10
2017-06-30T02:10:42.360Z,16.10
2017-06-30T02:13:10.485Z,16.10
2017-06-30T02:15:38.570Z,16.10
2017-06-30T02:18:06.694Z,16.20
2017-06-30T02:20:35.577Z,16.20
2017-06-30T02:23:03.654Z,16.10
2017-06-30T02:25:32.510Z,16.10
2017-06-30T02:28:00.566Z,16.10
2017-06-30T02:30:28.648Z,16.20
2017-06-30T02:32:56.814Z,16.10
2017-06-30T02:35:24.836Z,16.10
2017-06-30T02:37:53.674Z,16.10
2017-06-30T02:40:21.747Z,16.10
2017-06-30T02:42:49.843Z,16.00
2017-06-30T02:45:17.910Z,16.10
2017-06-30T02:47:46.012Z,16.00
2017-06-30T02:50:14.110Z,16.10
2017-06-30T02:52:42.909Z,16.10
2017-06-30T02:55:10.999Z,16.10
2017-06-30T02:57:39.051Z,16.20
2017-06-30T03:00:07.139Z,16.10
2017-06-30T03:02:35.198Z,16.10
2017-06-30T03:05:03.274Z,16.20
2017-06-30T03:07:31.351Z,16.20
2017-06-30T03:09:59.409Z,16.20
2017-06-30T03:12:27.486Z,16.10
2017-06-30T03:14:55.546Z,16.10
2017-06-30T03:17:23.676Z,16.10
2017-06-30T03:19:51.750Z,16.10
2017-06-30T03:22:19.817Z,16.10
2017-06-30T03:24:47.894Z,16.10
2017-06-30T03:27:16.006Z,16.10
2017-06-30T03:29:44.140Z,16.10
2017-06-30T03:32:12.210Z,16.10
2017-06-30T03:34:40.332Z,16.10
2017-06-30T03:37:08.424Z,16.20
2017-06-30T03:39:36.553Z,16.20
2017-06-30T03:42:05.117Z,16.20
2017-06-30T03:44:33.242Z,16.20
2017-06-30T03:47:01.448Z,16.20
2017-06-30T03:49:29.569Z,16.20
2017-06-30T03:51:57.718Z,16.20
2017-06-30T03:54:25.794Z,16.20
2017-06-30T03:56:54.639Z,16.20
2017-06-30T03:59:23.113Z,16.20
2017-06-30T04:01:51.166Z,16.20
2017-06-30T04:04:19.287Z,16.20
2017-06-30T04:06:47.334Z,16.10
2017-06-30T04:09:15.415Z,16.10
2017-06-30T04:11:43.470Z,16.20
2017-06-30T04:14:11.558Z,16.10
2017-06-30T04:16:39.671Z,16.20
2017-06-30T04:19:08.582Z,16.30
2017-06-30T04:21:37.467Z,16.30
2017-06-30T04:24:06.335Z,16.30
2017-06-30T04:26:34.897Z,16.20
2017-06-30T04:29:02.969Z,16.20
2017-06-30T04:31:31.255Z,16.20
2017-06-30T04:33:59.728Z,16.30
2017-06-30T04:36:27.838Z,16.30
2017-06-30T04:38:55.870Z,16.30
2017-06-30T04:41:24.421Z,16.30
2017-06-30T04:43:52.643Z,16.40
2017-06-30T04:46:21.083Z,16.40
2017-06-30T04:48:49.250Z,16.40
2017-06-30T04:51:17.306Z,16.50
2017-06-30T04:53:46.173Z,16.60
2017-06-30T04:56:14.270Z,16.70
2017-06-30T04:58:42.978Z,16.70
2017-06-30T05:01:11.112Z,16.60
2017-06-30T05:03:39.214Z,16.40
2017-06-30T05:06:07.708Z,16.40
2017-06-30T05:08:35.847Z,16.40
2017-06-30T05:11:04.691Z,16.40
2017-06-30T05:13:32.769Z,16.50
2017-06-30T05:16:00.934Z,16.50
2017-06-30T05:18:29.010Z,16.50
2017-06-30T05:20:57.127Z,16.70
2017-06-30T05:23:25.336Z,16.70
2017-06-30T05:25:53.847Z,16.70
2017-06-30T05:28:21.937Z,16.60
2017-06-30T05:30:50.830Z,16.60
2017-06-30T05:33:18.886Z,16.70
2017-06-30T05:35:47.052Z,16.70
2017-06-30T05:38:15.165Z,16.60
2017-06-30T05:40:43.688Z,16.30
2017-06-30T05:43:11.744Z,16.30
2017-06-30T05:45:39.836Z,16.30
2017-06-30T05:48:07.890Z,16.40
2017-06-30T05:50:35.972Z,16.60
2017-06-30T05:53:04.021Z,16.80
2017-06-30T05:55:32.094Z,17.10
2017-06-30T05:58:00.193Z,17.20
2017-06-30T06:00:28.318Z,17.30
2017-06-30T06:02:56.366Z,17.50
2017-06-30T06:05:24.839Z,17.60
2017-06-30T06:07:52.997Z,17.70
2017-06-30T06:10:21.454Z,17.60
2017-06-30T06:12:49.573Z,17.50
2017-06-30T06:15:18.495Z,17.50
2017-06-30T06:17:47.373Z,17.60
2017-06-30T06:20:15.421Z,17.70
2017-06-30T06:22:43.910Z,17.90
2017-06-30T06:25:11.974Z,17.80
2017-06-30T06:27:40.022Z,17.80
2017-06-30T06:30:08.102Z,17.90
2017-06-30T06:32:36.184Z,17.90
2017-06-30T06:35:04.270Z,18.10
2017-06-30T06:37:32.365Z,18.00
2017-06-30T06:40:00.433Z,18.00
2017-06-30T06:42:29.263Z,17.90
2017-06-30T06:44:57.358Z,18.10
2017-06-30T06:47:25.472Z,18.20
2017-06-30T06:49:53.666Z,18.40
2017-06-30T06:52:21.794Z,18.40
2017-06-30T06:54:49.861Z,18.20
2017-06-30T06:57:17.944Z,18.30
2017-06-30T06:59:46.083Z,18.20
2017-06-30T07:02:14.158Z,18.00
2017-06-30T07:04:42.250Z,18.00
2017-06-30T07:07:10.311Z,17.90
2017-06-30T07:09:38.480Z,18.00
2017-06-30T07:12:06.542Z,18.00
2017-06-30T07:14:34.663Z,18.10
2017-06-30T07:17:02.822Z,18.20
2017-06-30T07:19:30.874Z,18.40
2017-06-30T07:21:58.939Z,18.50
2017-06-30T07:24:27.006Z,18.40
2017-06-30T07:26:56.669Z,18.30
2017-06-30T07:29:24.741Z,18.30
2017-06-30T07:31:52.794Z,18.30
2017-06-30T07:34:20.870Z,18.30
2017-06-30T07:36:48.938Z,18.40
2017-06-30T07:39:17.042Z,18.60
2017-06-30T07:41:45.098Z,18.70
2017-06-30T07:44:13.918Z,18.70
2017-06-30T07:46:42.426Z,18.80
2017-06-30T07:49:10.474Z,18.60
2017-06-30T07:51:38.644Z,18.60
2017-06-30T07:54:06.698Z,18.50
2017-06-30T07:56:35.547Z,18.80
2017-06-30T07:59:03.764Z,18.70
2017-06-30T08:01:31.830Z,19.00
2017-06-30T08:04:00.736Z,19.10
2017-06-30T08:06:29.554Z,19.30
2017-06-30T08:08:57.610Z,19.30
2017-06-30T08:11:25.681Z,19.50
2017-06-30T08:13:53.770Z,20.00
2017-06-30T08:16:21.966Z,19.80
2017-06-30T08:18:49.994Z,19.80
2017-06-30T08:21:18.070Z,19.80
2017-06-30T08:23:46.182Z,19.70
2017-06-30T08:26:14.242Z,19.70
2017-06-30T08:28:42.307Z,19.80
2017-06-30T08:31:10.389Z,19.90
2017-06-30T08:33:38.867Z,20.10
2017-06-30T08:36:06.924Z,20.00
2017-06-30T08:38:35.006Z,20.00
2017-06-30T08:41:03.122Z,20.20
2017-06-30T08:43:31.222Z,20.60
2017-06-30T08:46:00.070Z,20.80
2017-06-30T08:48:28.135Z,20.70
2017-06-30T08:50:56.228Z,20.70
2017-06-30T08:53:24.721Z,20.40
2017-06-30T08:55:53.551Z,19.90
2017-06-30T08:58:21.627Z,19.60
2017-06-30T09:00:49.711Z,19.50
2017-06-30T09:03:18.219Z,19.90
2017-06-30T09:05:46.295Z,19.90
2017-06-30T09:08:15.150Z,20.10
2017-06-30T09:10:43.226Z,20.70
2017-06-30T09:13:12.053Z,20.90
2017-06-30T09:15:40.891Z,20.50
2017-06-30T09:18:09.732Z,20.60
2017-06-30T09:20:37.811Z,20.80
2017-06-30T09:23:05.856Z,20.70
2017-06-30T09:25:34.326Z,20.80
2017-06-30T09:28:02.395Z,20.80
2017-06-30T09:30:30.482Z,20.80
2017-06-30T09:32:58.536Z,20.70
2017-06-30T09:35:26.619Z,20.50
2017-06-30T09:37:55.126Z,20.60
2017-06-30T09:40:23.182Z,20.60
2017-06-30T09:42:51.278Z,20.60
2017-06-30T09:45:20.102Z,20.70
2017-06-30T09:47:48.550Z,20.80
2017-06-30T09:50:17.494Z,21.30
2017-06-30T09:52:45.549Z,21.40
2017-06-30T09:55:13.624Z,21.40
2017-06-30T09:57:41.714Z,21.30
2017-06-30T10:00:09.862Z,21.10
2017-06-30T10:02:37.910Z,21.30
2017-06-30T10:05:05.966Z,21.00
2017-06-30T10:07:34.881Z,20.70
2017-06-30T10:10:02.954Z,20.20
2017-06-30T10:12:31.459Z,20.20
2017-06-30T10:14:59.560Z,20.20
2017-06-30T10:17:27.653Z,20.30
2017-06-30T10:19:56.160Z,21.10
2017-06-30T10:22:24.970Z,21.20
2017-06-30T10:24:53.076Z,21.20
2017-06-30T10:27:21.578Z,20.90
2017-06-30T10:29:50.402Z,21.10
2017-06-30T10:32:18.481Z,20.80
2017-06-30T10:34:46.573Z,20.80
2017-06-30T10:37:14.655Z,20.60
2017-06-30T10:39:42.771Z,20.70
2017-06-30T10:42:11.659Z,20.70
2017-06-30T10:44:39.720Z,20.70
2017-06-30T10:47:08.559Z,20.70
2017-06-30T10:49:36.685Z,20.90
2017-06-30T10:52:04.778Z,21.20
2017-06-30T10:54:32.925Z,21.50
2017-06-30T10:57:00.975Z,22.20
2017-06-30T10:59:29.058Z,22.50
2017-06-30T11:01:57.117Z,23.00
2017-06-30T11:04:25.226Z,23.20
2017-06-30T11:06:53.655Z,23.30
2017-06-30T11:09:21.741Z,23.30
2017-06-30T11:11:49.817Z,23.60
2017-06-30T11:14:18.738Z,23.10
2017-06-30T11:16:46.856Z,22.80
2017-06-30T11:19:14.914Z,23.30
2017-06-30T11:21:42.995Z,24.00
2017-06-30T11:24:11.561Z,23.70
2017-06-30T11:26:39.666Z,23.30
2017-06-30T11:29:07.748Z,22.80
2017-06-30T11:31:35.801Z,22.60
2017-06-30T11:34:03.892Z,22.10
2017-06-30T11:36:32.006Z,22.00
2017-06-30T11:39:00.897Z,21.90
2017-06-30T11:41:28.962Z,21.70
2017-06-30T11:43:57.785Z,21.60
2017-06-30T11:46:25.882Z,21.70
2017-06-30T11:48:54.083Z,22.00
2017-06-30T11:51:22.135Z,22.10
2017-06-30T11:53:50.195Z,22.00
2017-06-30T11:56:18.349Z,22.20
2017-06-30T11:58:46.781Z,22.40
2017-06-30T12:01:14.831Z,22.50
2017-06-30T12:03:43.310Z,22.40
2017-06-30T12:06:11.761Z,22.30
2017-06-30T12:08:39.855Z,22.50
2017-06-30T12:11:07.935Z,22.40
2017-06-30T12:13:36.102Z,22.00
2017-06-30T12:16:04.912Z,21.90
2017-06-30T12:18:32.981Z,22.00
2017-06-30T12:21:01.042Z,22.00
2017-06-30T12:23:29.115Z,22.00
2017-06-30T12:25:57.211Z,21.90
2017-06-30T12:28:25.331Z,22.10
2017-06-30T12:30:53.390Z,22.30
2017-06-30T12:33:21.450Z,22.50
2017-06-30T12:35:49.559Z,22.70
2017-06-30T12:38:17.639Z,22.40
2017-06-30T12:40:45.692Z,22.30
2017-06-30T12:43:13.742Z,22.20
2017-06-30T12:45:41.999Z,22.10
2017-06-30T12:48:10.107Z,22.00
2017-06-30T12:50:38.304Z,22.00
2017-06-30T12:53:06.370Z,21.80
2017-06-30T12:55:34.844Z,21.80
2017-06-30T12:58:02.958Z,21.80
2017-06-30T13:00:31.048Z,21.90
2017-06-30T13:02:59.159Z,22.00
2017-06-30T13:05:28.060Z,21.90
2017-06-30T13:07:56.868Z,22.20
2017-06-30T13:10:24.929Z,22.10
2017-06-30T13:12:53.059Z,22.60
2017-06-30T13:15:21.110Z,23.50
2017-06-30T13:17:49.186Z,23.90
2017-06-30T13:20:17.712Z,24.80
2017-06-30T13:22:45.873Z,25.20
2017-06-30T13:25:13.969Z,25.40
2017-06-30T13:27:42.022Z,25.70
2017-06-30T13:30:10.086Z,25.20
2017-06-30T13:32:38.567Z,24.70
2017-06-30T13:35:06.631Z,24.80
2017-06-30T13:37:35.466Z,24.60
2017-06-30T13:40:03.529Z,24.40
2017-06-30T13:42:31.608Z,24.00
2017-06-30T13:45:00.081Z,23.90
2017-06-30T13:47:28.134Z,23.50
2017-06-30T13:49:56.598Z,23.10
2017-06-30T13:52:24.760Z,23.10
2017-06-30T13:54:52.787Z,23.20
2017-06-30T13:57:20.842Z,23.50
2017-06-30T13:59:48.974Z,23.90
2017-06-30T14:02:17.858Z,23.80
2017-06-30T14:04:45.911Z,23.60
2017-06-30T14:07:14.090Z,23.80
2017-06-30T14:09:42.138Z,23.90
2017-06-30T14:12:10.200Z,23.90
2017-06-30T14:14:38.327Z,23.90
2017-06-30T14:17:07.163Z,24.50
2017-06-30T14:19:35.291Z,25.80
2017-06-30T14:22:03.382Z,27.10
2017-06-30T14:24:31.470Z,26.90
2017-06-30T14:26:59.626Z,26.50
2017-06-30T14:29:28.493Z,25.80
2017-06-30T14:31:56.578Z,25.20
2017-06-30T14:34:24.678Z,24.60
2017-06-30T14:36:53.227Z,24.30
2017-06-30T14:39:21.367Z,24.30
2017-06-30T14:41:49.818Z,24.30
2017-06-30T14:44:17.911Z,24.10
2017-06-30T14:46:46.858Z,24.10
2017-06-30T14:49:14.956Z,24.50
2017-06-30T14:51:43.044Z,24.70
2017-06-30T14:54:11.189Z,25.80
2017-06-30T14:56:39.263Z,26.40
2017-06-30T14:59:07.414Z,27.20
2017-06-30T15:01:36.272Z,27.40
2017-06-30T15:04:04.342Z,27.70
2017-06-30T15:06:32.468Z,27.20
2017-06-30T15:09:01.327Z,26.40
2017-06-30T15:11:29.458Z,26.40
2017-06-30T15:13:57.572Z,25.60
2017-06-30T15:16:25.622Z,25.30
2017-06-30T15:18:54.103Z,25.20
2017-06-30T15:21:22.168Z,25.00
2017-06-30T15:23:50.253Z,24.50
2017-06-30T15:26:18.333Z,24.30
2017-06-30T15:28:46.828Z,24.20
2017-06-30T15:31:15.298Z,24.20
2017-06-30T15:33:43.366Z,24.10
2017-06-30T15:36:11.453Z,24.10
2017-06-30T15:38:40.294Z,24.20
2017-06-30T15:41:08.349Z,24.20
2017-06-30T15:43:36.435Z,24.70
2017-06-30T15:46:04.490Z,25.70
2017-06-30T15:48:32.542Z,26.20
2017-06-30T15:51:00.617Z,26.10
2017-06-30T15:53:28.701Z,26.10
2017-06-30T15:55:57.150Z,26.30
2017-06-30T15:58:25.971Z,26.10
2017-06-30T16:00:54.068Z,26.30
2017-06-30T16:03:22.122Z,26.10
2017-06-30T16:05:50.178Z,26.40
2017-06-30T16:08:18.260Z,26.20
2017-06-30T16:10:46.706Z,25.40
2017-06-30T16:13:15.554Z,24.90
2017-06-30T16:15:43.652Z,24.50
2017-06-30T16:18:11.787Z,24.20
2017-06-30T16:20:39.909Z,23.80
2017-06-30T16:23:08.043Z,23.50
2017-06-30T16:25:36.090Z,23.50
2017-06-30T16:28:04.162Z,23.50
2017-06-30T16:30:32.233Z,23.30
2017-06-30T16:33:00.302Z,23.20
2017-06-30T16:35:28.415Z,23.20
2017-06-30T16:37:56.503Z,23.00
2017-06-30T16:40:24.585Z,23.00
2017-06-30T16:42:52.659Z,22.80
2017-06-30T16:45:20.750Z,22.80
2017-06-30T16:47:49.630Z,22.30
2017-06-30T16:50:17.694Z,22.00
2017-06-30T16:52:45.778Z,21.60
2017-06-30T16:55:14.632Z,21.60
2017-06-30T16:57:42.716Z,21.40
2017-06-30T17:00:10.769Z,21.40
2017-06-30T17:02:38.835Z,21.40
2017-06-30T17:05:06.900Z,21.60
2017-06-30T17:07:34.975Z,21.80
2017-06-30T17:10:03.431Z,21.90
2017-06-30T17:12:31.530Z,21.90
2017-06-30T17:15:00.078Z,22.00
2017-06-30T17:17:28.146Z,22.00
2017-06-30T17:19:56.652Z,21.70
2017-06-30T17:22:24.715Z,21.70
2017-06-30T17:24:53.538Z,21.50
2017-06-30T17:27:21.600Z,21.60
2017-06-30T17:29:49.712Z,21.40
2017-06-30T17:32:17.754Z,21.30
2017-06-30T17:34:45.838Z,21.30
2017-06-30T17:37:13.900Z,21.20
2017-06-30T17:39:41.953Z,21.20
2017-06-30T17:42:10.072Z,20.90
2017-06-30T17:44:38.127Z,21.00
2017-06-30T17:47:06.602Z,20.90
2017-06-30T17:49:34.786Z,20.80
2017-06-30T17:52:02.838Z,20.80
2017-06-30T17:54:30.894Z,20.80
2017-06-30T17:56:58.975Z,20.90
2017-06-30T17:59:27.052Z,20.90
2017-06-30T18:01:55.130Z,20.90
2017-06-30T18:04:23.189Z,20.90
2017-06-30T18:06:51.662Z,21.00
2017-06-30T18:09:19.821Z,21.00
2017-06-30T18:11:48.629Z,20.90
2017-06-30T18:14:16.779Z,20.90
2017-06-30T18:16:44.953Z,20.90
2017-06-30T18:19:12.994Z,20.80
2017-06-30T18:21:41.051Z,20.70
2017-06-30T18:24:09.116Z,20.70
2017-06-30T18:26:37.182Z,20.70
2017-06-30T18:29:05.254Z,20.60
2017-06-30T18:31:34.095Z,20.60
2017-06-30T18:34:02.200Z,20.50
2017-06-30T18:36:30.266Z,20.50
2017-06-30T18:38:58.322Z,20.40
2017-06-30T18:41:27.184Z,20.30
2017-06-30T18:43:55.249Z,20.20
2017-06-30T18:46:23.318Z,20.10
2017-06-30T18:48:51.794Z,20.00
2017-06-30T18:51:21.400Z,19.90
2017-06-30T18:53:49.481Z,19.90
2017-06-30T18:56:17.574Z,19.80
2017-06-30T18:58:46.435Z,19.70
2017-06-30T19:01:14.482Z,19.70
2017-06-30T19:03:42.627Z,19.60
2017-06-30T19:06:11.156Z,19.50
2017-06-30T19:08:39.239Z,19.40
2017-06-30T19:11:07.298Z,19.30
2017-06-30T19:13:35.375Z,19.30
2017-06-30T19:16:03.446Z,19.20
2017-06-30T19:18:31.557Z,19.00
2017-06-30T19:21:00.366Z,18.90
2017-06-30T19:23:28.458Z,18.80
2017-06-30T19:25:56.529Z,18.80
2017-06-30T19:28:24.606Z,18.70
2017-06-30T19:30:52.682Z,18.70
2017-06-30T19:33:20.741Z,18.70
2017-06-30T19:35:48.828Z,18.60
2017-06-30T19:38:16.870Z,18.60
2017-06-30T19:40:45.054Z,18.50
2017-06-30T19:43:13.185Z,18.50
2017-06-30T19:45:41.672Z,18.50
2017-06-30T19:48:10.122Z,18.50
2017-06-30T19:50:38.217Z,18.50
2017-06-30T19:53:06.733Z,18.40
2017-06-30T19:55:34.839Z,18.40
2017-06-30T19:58:02.894Z,18.40
2017-06-30T20:00:30.990Z,18.40
2017-06-30T20:02:59.047Z,18.40
2017-06-30T20:05:27.130Z,18.40
2017-06-30T20:07:55.219Z,18.30
2017-06-30T20:10:23.277Z,18.30
2017-06-30T20:12:51.751Z,18.20
2017-06-30T20:15:19.810Z,18.20
2017-06-30T20:17:48.288Z,18.20
2017-06-30T20:20:16.340Z,18.20
2017-06-30T20:22:45.193Z,18.10
2017-06-30T20:25:14.027Z,18.10
2017-06-30T20:27:42.214Z,18.00
2017-06-30T20:30:10.713Z,18.00
2017-06-30T20:32:38.817Z,17.90
2017-06-30T20:35:07.014Z,17.90
2017-06-30T20:37:35.823Z,17.80
2017-06-30T20:40:03.893Z,17.90
2017-06-30T20:42:31.947Z,17.90
2017-06-30T20:45:00.026Z,17.80
2017-06-30T20:47:28.107Z,17.80
2017-06-30T20:49:56.592Z,17.80
2017-06-30T20:52:24.674Z,17.80
2017-06-30T20:54:52.765Z,17.70
2017-06-30T20:57:20.820Z,17.80
2017-06-30T20:59:48.900Z,17.70
2017-06-30T21:02:16.966Z,17.70
2017-06-30T21:04:45.018Z,17.70
2017-06-30T21:07:13.187Z,17.70
2017-06-30T21:09:41.284Z,17.80
2017-06-30T21:12:10.194Z,17.80
2017-06-30T21:14:40.590Z,17.80
2017-06-30T21:17:09.482Z,17.90
2017-06-30T21:19:37.543Z,17.90
2017-06-30T21:22:05.614Z,17.90
2017-06-30T21:24:33.682Z,17.90
2017-06-30T21:27:01.816Z,18.00
2017-06-30T21:29:29.858Z,18.00
2017-06-30T21:31:58.446Z,18.00
2017-06-30T21:34:26.509Z,18.00
2017-06-30T21:36:54.581Z,18.00
2017-06-30T21:39:22.751Z,18.00
2017-06-30T21:41:50.840Z,18.00
2017-06-30T21:44:18.899Z,18.00
2017-06-30T21:46:47.094Z,18.00
2017-06-30T21:49:15.174Z,17.90
2017-06-30T21:51:43.236Z,17.90
2017-06-30T21:54:11.319Z,17.90
2017-06-30T21:56:39.395Z,17.80
2017-06-30T21:59:07.445Z,17.90
2017-06-30T22:01:35.603Z,17.90
2017-06-30T22:04:03.632Z,17.90
2017-06-30T22:06:32.475Z,17.80
2017-06-30T22:09:00.533Z,17.80
2017-06-30T22:11:28.630Z,17.80
2017-06-30T22:13:56.689Z,17.70
2017-06-30T22:16:24.755Z,17.70
2017-06-30T22:18:52.827Z,17.70
2017-06-30T22:21:20.906Z,17.70
2017-06-30T22:23:48.996Z,17.60
2017-06-30T22:26:17.047Z,17.60
2017-06-30T22:28:45.158Z,17.60
2017-06-30T22:31:13.990Z,17.60
2017-06-30T22:33:42.070Z,17.60
2017-06-30T22:36:10.254Z,17.50
2017-06-30T22:38:38.330Z,17.50
2017-06-30T22:41:06.466Z,17.50
2017-06-30T22:43:35.306Z,17.40
2017-06-30T22:46:03.362Z,17.40
2017-06-30T22:48:31.445Z,17.40
2017-06-30T22:50:59.516Z,17.30
2017-06-30T22:53:27.679Z,17.30
2017-06-30T22:55:55.755Z,17.30
2017-06-30T22:58:23.842Z,17.30
2017-06-30T23:00:51.943Z,17.20
2017-06-30T23:03:20.083Z,17.20
2017-06-30T23:05:48.145Z,17.20
2017-06-30T23:08:16.230Z,17.10
2017-06-30T23:10:44.294Z,17.10
2017-06-30T23:13:13.124Z,17.10
2017-06-30T23:15:41.602Z,17.10
2017-06-30T23:18:10.422Z,17.00
2017-06-30T23:20:38.626Z,17.00
2017-06-30T23:23:06.652Z,16.90
2017-06-30T23:25:35.476Z,17.00
2017-06-30T23:28:04.355Z,16.90
2017-06-30T23:30:33.197Z,16.90
2017-06-30T23:35:30.582Z,16.80
2017-06-30T23:37:59.420Z,16.80
2017-06-30T23:40:27.587Z,16.80
2017-06-30T23:42:56.491Z,16.80
2017-06-30T23:45:24.954Z,16.80
2017-06-30T23:47:53.043Z,16.80
2017-06-30T23:50:21.205Z,16.80
2017-06-30T23:52:49.291Z,16.70
2017-06-30T23:55:17.370Z,16.70
2017-06-30T23:57:45.426Z,16.70
